Ocean Falls, Canada
Current Conditions -  °F | °C
As of 4:33 AM on Thursday 23 Oct 2014 (Local Time) from CBBC Reporting Station
Light Rain Light Rain  
Wind Chill: 41°   Ceiling: 4400
Heat Index: 45°   Visibility: 6mi
Dew Point: 43°   Wind: 6mph
Humidity: 93%   Direction: 150°SSE
Pressure: 29.59"   Gusts: NA
Location:  52.35°N, 127.7°W
Report Text: CBBC 231133Z AUTO 15005KT 130V190 6SM -RA BR SCT034 BKN044 OVC050 07/06 A2959 RMK PCPN 0.8MM PAST HR SLP022
Loading
Personal Weather Stations






























Interactive Weather Map New forecast layout! Learn more

10-Day Weather Forecast

Advertisements
Track Severe Weather on mobile